Time;durP1;ratioP1;P1;durP2;ratioP2;P2;SDS_P1;SDS_P2;PMS_P1;PMS_P2;Temp;Humidity;BMP_temperature;BMP_pressure;BME280_temperature;BME280_humidity;BME280_pressure;Samples;Min_cycle;Max_cycle;Signal;HPM_P1;HPM_P2
2022/06/27 00:00:23;;;;;;;8.52;7.72;;;17.40;99.90;;;;;;5016390;28;20068;-32
2022/06/27 00:02:49;;;;;;;9.07;8.18;;;17.40;99.90;;;;;;5032336;28;20092;-30
2022/06/27 00:05:15;;;;;;;8.77;7.97;;;17.40;99.90;;;;;;5032285;28;20041;-30
2022/06/27 00:07:41;;;;;;;10.00;8.40;;;17.30;99.90;;;;;;5032349;28;20038;-30
2022/06/27 00:10:08;;;;;;;10.35;9.35;;;17.30;99.90;;;;;;5031064;28;20050;-30
2022/06/27 00:12:34;;;;;;;11.98;10.98;;;17.30;99.90;;;;;;5032711;28;20040;-30
2022/06/27 00:15:00;;;;;;;12.23;11.02;;;17.30;99.90;;;;;;5032473;28;20029;-30
2022/06/27 00:17:27;;;;;;;12.27;11.15;;;17.20;99.90;;;;;;5030370;28;20144;-30
2022/06/27 00:19:53;;;;;;;13.50;12.30;;;17.20;99.90;;;;;;5030787;28;20073;-30
2022/06/27 00:22:19;;;;;;;13.30;12.05;;;17.20;99.90;;;;;;5032051;28;20061;-31
2022/06/27 00:24:46;;;;;;;12.98;11.43;;;17.20;99.90;;;;;;5032108;28;20045;-30
2022/06/27 00:27:12;;;;;;;11.50;10.50;;;17.20;99.90;;;;;;5031981;28;20073;-31
2022/06/27 00:29:38;;;;;;;10.65;9.63;;;17.20;99.90;;;;;;5031846;28;20546;-30
2022/06/27 00:32:04;;;;;;;10.00;9.13;;;17.20;99.90;;;;;;5032043;28;20320;-30
2022/06/27 00:34:30;;;;;;;9.55;8.63;;;17.20;99.90;;;;;;5027099;28;20505;-30
2022/06/27 00:36:56;;;;;;;9.45;8.55;;;17.20;99.90;;;;;;5011584;28;20046;-30
2022/06/27 00:39:22;;;;;;;10.48;9.38;;;17.20;99.90;;;;;;5012325;28;20033;-30
2022/06/27 00:41:47;;;;;;;9.65;8.73;;;17.20;99.90;;;;;;5011784;28;20046;-31
2022/06/27 00:44:36;;;;;;;9.85;8.93;;;17.20;99.90;;;;;;5010716;28;20385;-30
2022/06/27 00:47:06;;;;;;;10.45;9.48;;;17.20;99.90;;;;;;5011747;28;20100;-29
2022/06/27 00:49:33;;;;;;;10.48;9.15;;;17.20;99.90;;;;;;5012076;28;20038;-31
2022/06/27 00:51:59;;;;;;;10.40;9.23;;;17.20;99.90;;;;;;5010195;28;20049;-30
2022/06/27 00:54:26;;;;;;;9.40;8.48;;;17.20;99.90;;;;;;5011859;28;20049;-30
2022/06/27 00:56:53;;;;;;;9.10;8.40;;;17.20;99.90;;;;;;5016091;28;20408;-31
2022/06/27 00:59:19;;;;;;;10.00;9.05;;;17.20;99.90;;;;;;5030933;28;20047;-31
2022/06/27 01:01:45;;;;;;;9.95;8.95;;;17.20;99.90;;;;;;5031529;28;20052;-31
2022/06/27 01:04:11;;;;;;;10.88;9.77;;;17.20;99.90;;;;;;5031434;28;20404;-31
2022/06/27 01:06:36;;;;;;;10.98;9.90;;;17.20;99.90;;;;;;5031237;28;20041;-30
2022/06/27 01:09:03;;;;;;;11.18;10.10;;;17.20;99.90;;;;;;5031462;28;20041;-30
2022/06/27 01:11:30;;;;;;;10.90;9.90;;;17.20;99.90;;;;;;5031068;28;20096;-30
2022/06/27 01:13:56;;;;;;;12.05;10.43;;;17.30;99.90;;;;;;5029779;28;20075;-30
2022/06/27 01:16:23;;;;;;;10.15;9.27;;;17.20;99.90;;;;;;5031121;28;20452;-31
2022/06/27 01:18:49;;;;;;;10.10;9.13;;;17.20;99.90;;;;;;5031422;28;20377;-30
2022/06/27 01:21:26;;;;;;;11.27;10.00;;;17.20;99.90;;;;;;5030800;28;20037;-31
2022/06/27 01:23:52;;;;;;;9.00;8.10;;;17.20;99.90;;;;;;5031110;28;20539;-31
2022/06/27 01:26:22;;;;;;;10.77;9.70;;;17.20;99.90;;;;;;5031267;28;20100;-31
2022/06/27 01:28:48;;;;;;;10.85;9.27;;;17.20;99.90;;;;;;5030529;28;20038;-31
2022/06/27 01:31:15;;;;;;;10.90;9.80;;;17.30;99.90;;;;;;5030856;28;20500;-31
2022/06/27 01:33:41;;;;;;;11.02;9.98;;;17.30;99.90;;;;;;5029724;28;20461;-32
2022/06/27 01:38:53;;;;;;;10.38;9.40;;;17.30;99.90;;;;;;5031285;28;20047;-30
2022/06/27 01:41:19;;;;;;;10.88;9.77;;;17.30;99.90;;;;;;5030630;28;20496;-31
2022/06/27 01:43:47;;;;;;;10.75;9.38;;;17.20;99.90;;;;;;5030809;28;20053;-30
2022/06/27 01:46:13;;;;;;;10.85;9.75;;;17.20;99.90;;;;;;5029177;28;20045;-32
2022/06/27 01:48:39;;;;;;;10.27;9.27;;;17.20;99.90;;;;;;5034555;28;20041;-29
2022/06/27 01:51:08;;;;;;;11.60;10.43;;;17.20;99.90;;;;;;5034983;28;20049;-29
2022/06/27 01:53:34;;;;;;;11.18;10.05;;;17.20;99.90;;;;;;5033711;28;20041;-30
2022/06/27 01:56:00;;;;;;;10.57;9.57;;;17.20;99.90;;;;;;5034802;28;20056;-30
2022/06/27 01:58:26;;;;;;;11.52;10.45;;;17.20;99.90;;;;;;5034737;28;20037;-31
2022/06/27 02:00:52;;;;;;;10.80;9.80;;;17.20;99.90;;;;;;5033423;28;20439;-30
2022/06/27 02:03:18;;;;;;;10.10;9.30;;;17.10;99.90;;;;;;5034708;28;20040;-31
2022/06/27 02:05:45;;;;;;;10.80;9.77;;;17.10;99.90;;;;;;5034711;28;20555;-31
2022/06/27 02:08:11;;;;;;;11.48;10.27;;;17.10;99.90;;;;;;5034657;28;20068;-30
2022/06/27 02:10:37;;;;;;;11.63;10.45;;;17.10;99.90;;;;;;5034168;28;20069;-30
2022/06/27 02:13:03;;;;;;;10.82;9.82;;;17.10;99.90;;;;;;5034633;28;20048;-31
2022/06/27 02:15:31;;;;;;;11.73;10.10;;;17.10;99.90;;;;;;5034584;28;20443;-30
2022/06/27 02:17:57;;;;;;;10.35;9.40;;;17.00;99.90;;;;;;5034764;28;20050;-31
2022/06/27 02:20:23;;;;;;;11.30;10.00;;;17.00;99.90;;;;;;5034461;28;20046;-30
2022/06/27 02:22:49;;;;;;;10.88;9.82;;;17.00;99.90;;;;;;5034405;28;20033;-30
2022/06/27 02:25:15;;;;;;;10.88;9.65;;;16.90;99.90;;;;;;5034453;28;20029;-28
2022/06/27 02:27:42;;;;;;;10.60;9.50;;;17.00;99.90;;;;;;5033991;28;20052;-28
2022/06/27 02:30:09;;;;;;;11.45;10.23;;;17.00;99.90;;;;;;5034415;28;20470;-30
2022/06/27 02:32:35;;;;;;;11.35;10.10;;;17.00;99.90;;;;;;5033975;28;20480;-30
2022/06/27 02:35:01;;;;;;;11.10;10.10;;;17.00;99.90;;;;;;5034393;28;20045;-30
2022/06/27 02:37:28;;;;;;;11.02;9.93;;;17.00;99.90;;;;;;5034372;28;20045;-31
2022/06/27 02:39:55;;;;;;;11.40;10.30;;;17.00;99.90;;;;;;5033683;28;20046;-30
2022/06/27 02:42:22;;;;;;;10.65;9.65;;;17.00;99.90;;;;;;5034414;28;20400;-31
2022/06/27 02:44:49;;;;;;;11.02;10.13;;;17.00;99.90;;;;;;5032919;28;20109;-31
2022/06/27 02:47:18;;;;;;;11.43;10.27;;;17.00;99.90;;;;;;5033149;28;20077;-29
2022/06/27 02:49:44;;;;;;;11.23;10.23;;;16.90;99.90;;;;;;5033963;28;20048;-30
2022/06/27 02:52:47;;;;;;;10.35;9.35;;;16.90;99.90;;;;;;5034364;28;20041;-30
2022/06/27 02:55:15;;;;;;;10.65;9.55;;;16.90;99.90;;;;;;5000539;28;20428;-31
2022/06/27 02:58:07;;;;;;;9.40;8.60;;;16.90;99.90;;;;;;5029186;28;20037;-31
2022/06/27 03:00:35;;;;;;;9.18;8.38;;;16.90;99.90;;;;;;5033579;28;20100;-31
2022/06/27 03:03:03;;;;;;;11.45;9.43;;;16.80;99.90;;;;;;5033854;28;20042;-30
2022/06/27 03:05:29;;;;;;;10.40;9.07;;;16.70;99.90;;;;;;5033975;28;20071;-30
2022/06/27 03:07:55;;;;;;;11.50;10.45;;;16.70;99.90;;;;;;5032669;28;20048;-31
2022/06/27 03:10:22;;;;;;;14.13;12.43;;;16.70;99.90;;;;;;5034259;28;20098;-30
2022/06/27 03:12:48;;;;;;;12.82;11.52;;;16.60;99.90;;;;;;5032473;28;20034;-30
2022/06/27 03:15:14;;;;;;;14.00;12.38;;;16.60;99.90;;;;;;5033751;28;20034;-30
2022/06/27 03:17:40;;;;;;;12.18;10.98;;;16.60;99.90;;;;;;5034023;28;20346;-31
2022/06/27 03:20:06;;;;;;;13.75;11.82;;;16.60;99.90;;;;;;5033496;28;20044;-30
2022/06/27 03:22:31;;;;;;;13.93;12.40;;;16.60;99.90;;;;;;5033472;28;20073;-29
2022/06/27 03:24:57;;;;;;;12.40;11.23;;;16.60;99.90;;;;;;5033502;28;20077;-31
2022/06/27 03:27:23;;;;;;;14.48;13.02;;;16.50;99.90;;;;;;5033726;28;20114;-30
2022/06/27 03:29:48;;;;;;;14.45;13.10;;;16.60;99.90;;;;;;5032620;28;20038;-30
2022/06/27 03:32:14;;;;;;;15.20;13.75;;;16.60;99.90;;;;;;5033146;28;20048;-29
2022/06/27 03:34:40;;;;;;;13.48;11.98;;;16.60;99.90;;;;;;5032390;28;20117;-34
2022/06/27 03:37:07;;;;;;;12.55;11.30;;;16.60;99.90;;;;;;5023163;28;20041;-32
2022/06/27 03:39:33;;;;;;;11.52;10.43;;;16.60;99.90;;;;;;5021600;28;20045;-33
2022/06/27 03:41:59;;;;;;;11.32;10.25;;;16.60;99.90;;;;;;5030337;28;20411;-33
2022/06/27 03:44:25;;;;;;;10.80;9.70;;;16.60;99.90;;;;;;5025031;28;20523;-34
2022/06/27 03:46:50;;;;;;;9.20;8.30;;;16.60;99.90;;;;;;5029884;28;20041;-32
2022/06/27 03:52:00;;;;;;;9.35;8.10;;;16.50;99.90;;;;;;5030172;28;20049;-34
2022/06/27 03:54:26;;;;;;;9.85;8.80;;;16.50;99.90;;;;;;5027223;28;20040;-34
2022/06/27 03:56:53;;;;;;;8.80;7.85;;;16.50;99.90;;;;;;5031342;28;20088;-34
2022/06/27 03:59:19;;;;;;;9.02;8.23;;;16.40;99.90;;;;;;5027684;28;20041;-32
2022/06/27 04:01:46;;;;;;;8.60;7.80;;;16.40;99.90;;;;;;5031521;28;20435;-32
2022/06/27 04:04:11;;;;;;;8.07;7.22;;;16.40;99.90;;;;;;5019516;28;20049;-31
2022/06/27 04:06:37;;;;;;;9.55;8.70;;;16.40;99.90;;;;;;5021093;28;20148;-32
2022/06/27 04:09:03;;;;;;;9.55;8.65;;;16.40;99.90;;;;;;5023710;28;20408;-32
2022/06/27 04:11:29;;;;;;;9.63;8.73;;;16.40;99.90;;;;;;5021510;28;20447;-33
2022/06/27 04:13:55;;;;;;;9.15;8.25;;;16.40;99.90;;;;;;5031810;28;20033;-33
2022/06/27 04:16:20;;;;;;;9.90;8.35;;;16.40;99.90;;;;;;5028317;28;20080;-34
2022/06/27 04:18:46;;;;;;;9.80;8.88;;;16.40;99.90;;;;;;5020213;28;20431;-32
2022/06/27 04:21:12;;;;;;;10.15;9.25;;;16.40;99.90;;;;;;5028448;28;20096;-32
2022/06/27 04:23:40;;;;;;;10.73;9.65;;;16.30;99.90;;;;;;5031232;28;20044;-35
2022/06/27 04:26:06;;;;;;;10.40;9.40;;;16.30;99.90;;;;;;5020280;28;20048;-31
2022/06/27 04:28:32;;;;;;;10.18;9.35;;;16.30;99.90;;;;;;5031350;28;20034;-33
2022/06/27 04:30:58;;;;;;;10.30;9.27;;;16.30;99.90;;;;;;5030157;28;20045;-32
2022/06/27 04:33:23;;;;;;;9.00;8.30;;;16.30;99.90;;;;;;5031409;28;20036;-35
2022/06/27 04:35:50;;;;;;;10.25;7.90;;;16.40;99.90;;;;;;5023522;28;20033;-33
2022/06/27 04:38:19;;;;;;;8.40;7.55;;;16.30;99.90;;;;;;5028365;28;20039;-34
2022/06/27 04:40:45;;;;;;;7.35;6.65;;;16.30;99.90;;;;;;5023606;28;20516;-32
2022/06/27 04:43:11;;;;;;;6.97;6.35;;;16.30;99.90;;;;;;5031356;28;20033;-33
2022/06/27 04:45:37;;;;;;;7.78;7.07;;;16.40;99.90;;;;;;5028308;28;20120;-33
2022/06/27 04:48:06;;;;;;;7.60;7.00;;;16.40;99.90;;;;;;5024449;28;20488;-35
2022/06/27 04:50:32;;;;;;;7.20;6.60;;;16.30;99.90;;;;;;5028644;28;20041;-32
2022/06/27 04:53:01;;;;;;;7.20;6.55;;;16.30;99.90;;;;;;5028937;28;20060;-34
2022/06/27 04:55:27;;;;;;;6.47;5.88;;;16.30;99.90;;;;;;5013519;28;20083;-33
2022/06/27 04:57:53;;;;;;;6.95;6.28;;;16.30;99.90;;;;;;5027834;28;20052;-30
2022/06/27 05:00:19;;;;;;;7.15;6.55;;;16.20;99.90;;;;;;5025986;28;20107;-33
2022/06/27 05:02:46;;;;;;;7.07;6.43;;;16.30;99.90;;;;;;5016234;28;20049;-34
2022/06/27 05:05:12;;;;;;;7.63;6.95;;;16.20;99.90;;;;;;5012157;28;20029;-33
2022/06/27 05:07:38;;;;;;;6.80;6.20;;;16.30;99.90;;;;;;5015817;28;20492;-33
2022/06/27 05:10:05;;;;;;;6.95;6.25;;;16.30;99.90;;;;;;5020466;28;20229;-33
2022/06/27 05:12:31;;;;;;;6.00;5.60;;;16.30;99.90;;;;;;5024659;28;20041;-35
2022/06/27 05:14:57;;;;;;;6.50;6.00;;;16.30;99.90;;;;;;5019217;28;20110;-34
2022/06/27 05:17:24;;;;;;;7.75;7.07;;;16.40;99.90;;;;;;5019895;28;20044;-35
2022/06/27 05:19:50;;;;;;;8.60;7.15;;;16.30;99.90;;;;;;5018307;28;20033;-35
2022/06/27 05:22:16;;;;;;;8.13;7.35;;;16.40;99.90;;;;;;5029444;28;20124;-34
2022/06/27 05:24:42;;;;;;;7.63;6.93;;;16.40;99.90;;;;;;5022564;28;20121;-34
2022/06/27 05:27:09;;;;;;;7.05;6.35;;;16.40;99.90;;;;;;5025716;28;20530;-35
2022/06/27 05:29:38;;;;;;;7.32;6.63;;;16.50;99.90;;;;;;5027590;28;20399;-33
2022/06/27 05:32:04;;;;;;;7.75;6.63;;;16.50;99.90;;;;;;5023258;28;20042;-33
2022/06/27 05:34:30;;;;;;;7.10;6.50;;;16.50;99.90;;;;;;5019992;28;20726;-34
2022/06/27 05:36:56;;;;;;;7.07;6.47;;;16.60;99.90;;;;;;5025082;28;20033;-33
2022/06/27 05:39:21;;;;;;;6.72;6.18;;;16.60;99.90;;;;;;5017768;28;20064;-33
2022/06/27 05:41:48;;;;;;;7.75;6.35;;;16.70;99.90;;;;;;5022048;28;20091;-34
2022/06/27 05:44:14;;;;;;;6.15;5.47;;;16.70;99.90;;;;;;5027759;28;20029;-32
2022/06/27 05:46:41;;;;;;;6.15;5.55;;;16.80;99.90;;;;;;5020740;28;20034;-34
2022/06/27 05:49:08;;;;;;;6.22;5.63;;;16.90;99.90;;;;;;5023124;28;20037;-34
2022/06/27 05:51:35;;;;;;;5.97;5.38;;;16.90;99.90;;;;;;5023080;28;20389;-32
2022/06/27 05:54:02;;;;;;;5.53;5.03;;;17.00;99.90;;;;;;5019155;28;20504;-35
2022/06/27 05:56:29;;;;;;;5.55;5.05;;;17.00;99.90;;;;;;5022493;28;20466;-32
2022/06/27 05:58:55;;;;;;;6.10;5.60;;;17.00;99.90;;;;;;5023387;28;20164;-31
2022/06/27 06:01:23;;;;;;;5.50;5.07;;;17.10;99.90;;;;;;5029337;28;20084;-33
2022/06/27 06:03:49;;;;;;;5.20;4.80;;;17.10;99.90;;;;;;5025192;28;20029;-32
2022/06/27 06:06:16;;;;;;;5.03;4.63;;;17.10;99.90;;;;;;5028879;28;20065;-30
2022/06/27 06:08:43;;;;;;;5.00;4.50;;;17.10;99.90;;;;;;5029805;28;20527;-31
2022/06/27 06:11:10;;;;;;;5.90;4.75;;;17.10;99.90;;;;;;5028530;28;20072;-31
2022/06/27 06:13:36;;;;;;;5.40;5.00;;;17.20;99.90;;;;;;5028397;28;20037;-34
2022/06/27 06:16:02;;;;;;;4.82;4.43;;;17.20;99.90;;;;;;5029214;28;20124;-31
2022/06/27 06:18:30;;;;;;;5.10;4.70;;;17.20;99.90;;;;;;5016173;28;20084;-31
2022/06/27 06:20:57;;;;;;;4.90;4.50;;;17.20;99.90;;;;;;5029282;28;20137;-32
2022/06/27 06:23:24;;;;;;;4.72;4.32;;;17.20;99.90;;;;;;5029565;28;20048;-33
2022/06/27 06:25:50;;;;;;;4.90;4.50;;;17.20;99.90;;;;;;5025215;28;20427;-31
2022/06/27 06:28:16;;;;;;;5.47;5.07;;;17.10;99.90;;;;;;5029955;28;20545;-32
2022/06/27 06:30:42;;;;;;;6.40;5.80;;;17.20;99.90;;;;;;5029900;28;20068;-33
2022/06/27 06:33:08;;;;;;;6.80;4.97;;;17.10;99.90;;;;;;5025891;28;20493;-35
2022/06/27 06:35:34;;;;;;;5.97;5.38;;;17.20;99.90;;;;;;5020350;28;20539;-34
2022/06/27 06:38:01;;;;;;;6.00;5.45;;;17.20;99.90;;;;;;5013959;28;20050;-29
2022/06/27 06:40:28;;;;;;;6.05;5.47;;;17.20;99.90;;;;;;5027347;28;20452;-30
2022/06/27 06:42:55;;;;;;;6.25;5.65;;;17.20;99.90;;;;;;5033816;28;20041;-30
2022/06/27 06:45:22;;;;;;;5.82;5.32;;;17.20;99.90;;;;;;5033882;28;20038;-29
2022/06/27 06:47:49;;;;;;;5.63;5.13;;;17.30;99.90;;;;;;5034153;28;20458;-30
2022/06/27 06:50:18;;;;;;;5.82;5.32;;;17.40;99.90;;;;;;5033618;28;20038;-29
2022/06/27 06:52:51;;;;;;;6.18;5.68;;;17.40;99.90;;;;;;5034125;28;20033;-29
2022/06/27 06:55:21;;;;;;;6.50;5.90;;;17.40;99.90;;;;;;5033415;28;20041;-30
2022/06/27 06:57:48;;;;;;;6.22;5.72;;;17.40;99.90;;;;;;5034123;28;20044;-29
2022/06/27 07:00:15;;;;;;;5.65;5.20;;;17.40;99.90;;;;;;5033867;28;20480;-30
2022/06/27 07:02:40;;;;;;;6.80;6.05;;;17.40;99.90;;;;;;5033826;28;20505;-30
2022/06/27 07:05:11;;;;;;;5.93;5.43;;;17.40;99.90;;;;;;5049156;28;20044;-31
2022/06/27 07:07:43;;;;;;;6.20;5.65;;;17.30;99.90;;;;;;5032259;28;20045;-28
2022/06/27 07:10:13;;;;;;;6.32;5.65;;;17.20;99.90;;;;;;5026168;28;20029;-29
2022/06/27 07:12:40;;;;;;;6.10;5.60;;;17.10;99.90;;;;;;5012226;28;20042;-31
2022/06/27 07:15:09;;;;;;;5.82;5.43;;;17.10;99.90;;;;;;5012481;28;20046;-29
2022/06/27 07:17:53;;;;;;;6.22;5.72;;;17.10;99.90;;;;;;5024387;28;20515;-30
2022/06/27 07:20:20;;;;;;;6.55;5.95;;;17.00;99.90;;;;;;5026413;28;20501;-30
2022/06/27 07:22:48;;;;;;;6.53;6.03;;;17.00;99.90;;;;;;5030022;28;20041;-28
2022/06/27 07:25:13;;;;;;;6.10;5.60;;;17.10;99.90;;;;;;5033401;28;20540;-29
2022/06/27 07:27:40;;;;;;;6.30;5.70;;;17.10;99.90;;;;;;5033165;28;20172;-29
2022/06/27 07:30:11;;;;;;;6.80;6.13;;;17.10;99.90;;;;;;5032938;28;20124;-28
2022/06/27 07:32:39;;;;;;;7.13;6.43;;;17.10;99.90;;;;;;5033282;28;20037;-29
2022/06/27 07:35:09;;;;;;;6.40;5.90;;;17.20;99.90;;;;;;5032077;28;20042;-30
2022/06/27 07:37:38;;;;;;;6.57;5.97;;;17.20;99.90;;;;;;5033233;28;20042;-30
2022/06/27 07:40:04;;;;;;;7.40;6.55;;;17.20;99.90;;;;;;5033452;28;20155;-29
2022/06/27 07:42:30;;;;;;;6.72;6.00;;;17.30;99.90;;;;;;5032870;28;20049;-28
2022/06/27 07:44:56;;;;;;;5.95;5.50;;;17.40;99.90;;;;;;5015111;28;20042;-29
2022/06/27 07:47:22;;;;;;;6.72;6.22;;;17.40;99.90;;;;;;5012893;28;20046;-29
2022/06/27 07:49:47;;;;;;;6.57;5.88;;;17.50;99.90;;;;;;5013401;28;20033;-30
2022/06/27 07:52:13;;;;;;;6.50;6.00;;;17.60;99.90;;;;;;5019676;28;20033;-30
2022/06/27 07:54:39;;;;;;;6.60;6.00;;;17.70;99.90;;;;;;5033010;28;20095;-29
2022/06/27 07:57:05;;;;;;;6.80;6.20;;;17.80;99.90;;;;;;5031287;28;20080;-31
2022/06/27 07:59:32;;;;;;;5.93;5.32;;;18.00;99.90;;;;;;5023466;28;20088;-31
2022/06/27 08:01:58;;;;;;;6.63;6.03;;;18.20;99.90;;;;;;5028389;28;20045;-32
2022/06/27 08:04:24;;;;;;;6.30;5.70;;;18.30;99.90;;;;;;5022516;28;20038;-32
2022/06/27 08:06:52;;;;;;;5.97;5.50;;;18.40;99.90;;;;;;5016034;28;20042;-32
2022/06/27 08:09:21;;;;;;;6.75;6.00;;;18.50;99.90;;;;;;5028316;28;20512;-32
2022/06/27 08:11:47;;;;;;;6.22;5.72;;;18.50;99.90;;;;;;5022169;28;20042;-31
2022/06/27 08:14:18;;;;;;;6.80;6.20;;;18.60;99.90;;;;;;5029741;28;20038;-31
2022/06/27 08:16:48;;;;;;;6.70;6.10;;;18.70;99.90;;;;;;5019846;28;20539;-31
2022/06/27 08:19:14;;;;;;;7.03;6.40;;;18.80;99.90;;;;;;5016208;28;20095;-32
2022/06/27 08:21:41;;;;;;;6.63;6.03;;;18.90;99.90;;;;;;5026014;28;20412;-32
2022/06/27 08:24:08;;;;;;;5.53;5.03;;;19.00;99.90;;;;;;5023368;28;20049;-32
2022/06/27 08:26:36;;;;;;;5.63;5.00;;;19.10;99.90;;;;;;5028274;28;20065;-31
2022/06/27 08:29:04;;;;;;;5.28;4.82;;;19.20;99.90;;;;;;5020329;28;20120;-32
2022/06/27 08:31:31;;;;;;;5.43;5.00;;;19.20;99.90;;;;;;5014149;28;20496;-32
2022/06/27 08:34:01;;;;;;;5.38;4.97;;;19.20;99.90;;;;;;5028766;28;20053;-34
2022/06/27 08:36:30;;;;;;;5.10;4.53;;;19.30;99.90;;;;;;5024561;28;20096;-32
2022/06/27 08:39:01;;;;;;;4.85;4.18;;;19.20;99.90;;;;;;5023051;28;20103;-33
2022/06/27 08:41:28;;;;;;;5.00;4.60;;;19.20;99.90;;;;;;5018331;28;20049;-32
2022/06/27 08:44:00;;;;;;;4.80;4.43;;;19.20;99.90;;;;;;5025659;28;20040;-32
2022/06/27 08:46:27;;;;;;;4.75;4.35;;;19.20;99.90;;;;;;5019622;28;20034;-36
2022/06/27 08:48:55;;;;;;;5.60;4.70;;;19.20;99.90;;;;;;5020672;28;20037;-34
2022/06/27 08:51:22;;;;;;;4.93;4.53;;;19.20;99.90;;;;;;5020016;28;20044;-33
2022/06/27 08:53:51;;;;;;;5.40;4.90;;;19.10;99.90;;;;;;5015121;28;20408;-33
2022/06/27 08:56:17;;;;;;;4.55;4.15;;;19.10;99.90;;;;;;5020581;28;20045;-35
2022/06/27 08:58:47;;;;;;;4.25;3.95;;;19.10;99.90;;;;;;5025698;28;20559;-33
2022/06/27 09:01:19;;;;;;;4.85;4.43;;;19.00;99.90;;;;;;5020957;28;20048;-34
2022/06/27 09:04:06;;;;;;;4.35;3.88;;;19.10;99.90;;;;;;5023858;28;20052;-36
2022/06/27 09:06:44;;;;;;;4.10;3.70;;;19.00;99.90;;;;;;5026936;28;20032;-33
2022/06/27 09:09:13;;;;;;;3.70;3.40;;;19.10;99.90;;;;;;5023841;28;20079;-35
2022/06/27 09:11:42;;;;;;;4.70;3.40;;;19.10;99.90;;;;;;5029302;28;20056;-32
2022/06/27 09:14:30;;;;;;;3.28;2.97;;;19.10;99.90;;;;;;5030170;28;20120;-31
2022/06/27 09:17:02;;;;;;;3.40;3.10;;;19.10;99.90;;;;;;5016302;28;20041;-33
2022/06/27 09:19:52;;;;;;;3.90;3.60;;;19.10;99.90;;;;;;5017439;28;20080;-32
2022/06/27 09:22:19;;;;;;;4.50;4.07;;;19.10;99.90;;;;;;5026602;28;20049;-33
2022/06/27 09:25:20;;;;;;;3.72;3.42;;;18.90;99.90;;;;;;5022965;28;20121;-33
2022/06/27 09:27:50;;;;;;;4.00;3.70;;;18.90;99.90;;;;;;5017965;28;20205;-34
2022/06/27 09:30:22;;;;;;;4.65;3.97;;;18.90;99.90;;;;;;5023113;28;20468;-32
2022/06/27 09:32:59;;;;;;;5.05;4.38;;;18.90;99.90;;;;;;5026731;28;20408;-34
2022/06/27 09:35:29;;;;;;;4.60;4.30;;;18.80;99.90;;;;;;5025122;28;20536;-34
2022/06/27 09:37:57;;;;;;;4.82;4.43;;;18.90;99.90;;;;;;5012986;28;20048;-34
2022/06/27 09:40:25;;;;;;;5.13;4.63;;;19.00;99.90;;;;;;5027373;28;20451;-33
2022/06/27 09:42:56;;;;;;;4.80;4.15;;;19.00;99.90;;;;;;5013907;28;20494;-33
2022/06/27 09:45:24;;;;;;;5.50;5.03;;;19.10;99.90;;;;;;5026434;28;20037;-32
2022/06/27 09:47:57;;;;;;;5.35;4.68;;;19.10;99.90;;;;;;5027504;28;20562;-33
2022/06/27 09:50:23;;;;;;;5.10;4.60;;;19.10;99.90;;;;;;5023668;28;20396;-36
2022/06/27 09:52:51;;;;;;;4.50;4.10;;;19.10;99.90;;;;;;5026250;28;20082;-34
2022/06/27 09:55:21;;;;;;;4.93;4.53;;;19.20;99.90;;;;;;5021612;28;20048;-32
2022/06/27 09:57:46;;;;;;;4.35;3.95;;;19.20;99.90;;;;;;5027787;28;20409;-33
2022/06/27 10:00:13;;;;;;;4.35;4.05;;;19.20;99.90;;;;;;5024785;28;20316;-34
2022/06/27 10:02:40;;;;;;;4.10;3.75;;;19.30;99.90;;;;;;5027944;28;20034;-33
2022/06/27 10:05:06;;;;;;;3.90;3.60;;;19.40;99.90;;;;;;5027912;28;20115;-35
2022/06/27 10:07:34;;;;;;;4.65;4.25;;;19.40;99.90;;;;;;5021460;28;20041;-33
2022/06/27 10:10:00;;;;;;;4.55;4.15;;;19.50;99.90;;;;;;5031355;28;20049;-34
2022/06/27 10:12:32;;;;;;;4.47;4.07;;;19.70;99.90;;;;;;5027478;28;20029;-34
2022/06/27 10:15:25;;;;;;;4.60;4.20;;;19.80;99.90;;;;;;5020502;28;20481;-33
2022/06/27 10:17:53;;;;;;;5.80;4.57;;;19.90;99.90;;;;;;5029120;28;20046;-34
2022/06/27 10:20:30;;;;;;;4.82;4.43;;;19.80;99.90;;;;;;5020220;28;20743;-34
2022/06/27 10:23:11;;;;;;;4.72;4.00;;;19.80;99.90;;;;;;5029431;28;20091;-34
2022/06/27 10:25:48;;;;;;;4.03;3.72;;;19.80;99.90;;;;;;5031991;28;20111;-34
2022/06/27 10:28:15;;;;;;;4.38;3.97;;;19.70;99.90;;;;;;5023038;28;20098;-35
2022/06/27 10:30:48;;;;;;;4.32;3.80;;;19.70;99.90;;;;;;5032173;28;20033;-35
2022/06/27 10:33:23;;;;;;;4.38;3.97;;;19.70;99.90;;;;;;5026701;28;20503;-37
2022/06/27 10:36:10;;;;;;;3.65;3.45;;;19.70;99.90;;;;;;5023529;28;20041;-33
2022/06/27 10:38:39;;;;;;;4.70;4.25;;;19.80;99.90;;;;;;5033538;28;20104;-33
2022/06/27 10:41:27;;;;;;;4.60;3.58;;;19.90;99.90;;;;;;5027148;28;20401;-34
2022/06/27 10:43:54;;;;;;;4.47;4.07;;;20.00;99.90;;;;;;5026413;28;20099;-33
2022/06/27 10:46:20;;;;;;;4.85;4.45;;;20.00;99.90;;;;;;5031920;28;20069;-32
2022/06/27 10:48:53;;;;;;;4.55;4.15;;;20.20;99.90;;;;;;5022584;28;20057;-34
2022/06/27 10:51:19;;;;;;;4.43;3.88;;;20.30;99.90;;;;;;5022487;28;20437;-34
2022/06/27 10:53:46;;;;;;;4.47;3.50;;;20.40;99.90;;;;;;5023428;28;20224;-33
2022/06/27 10:56:29;;;;;;;3.92;3.58;;;20.30;99.90;;;;;;5033324;28;20120;-33
2022/06/27 10:58:59;;;;;;;3.72;3.42;;;20.30;99.90;;;;;;5022562;28;20045;-34
2022/06/27 11:01:29;;;;;;;3.65;3.35;;;20.50;99.90;;;;;;5024558;28;20399;-33
2022/06/27 11:03:55;;;;;;;3.35;3.15;;;20.60;99.90;;;;;;5033975;28;20034;-34
2022/06/27 11:06:21;;;;;;;3.40;3.10;;;20.60;99.90;;;;;;5031303;28;20065;-34
2022/06/27 11:08:49;;;;;;;2.65;2.45;;;20.80;99.90;;;;;;5031764;28;20100;-34
2022/06/27 11:11:27;;;;;;;2.42;2.33;;;20.80;99.90;;;;;;5022580;28;20124;-35
2022/06/27 11:13:55;;;;;;;3.53;2.72;;;20.70;99.90;;;;;;5022296;28;20439;-35
2022/06/27 11:16:26;;;;;;;3.45;3.15;;;20.60;99.90;;;;;;5023794;28;20038;-36
2022/06/27 11:18:58;;;;;;;4.05;3.65;;;20.60;99.90;;;;;;5017840;28;20081;-33
2022/06/27 11:21:35;;;;;;;3.33;2.90;;;20.60;99.90;;;;;;5019431;28;20096;-34
2022/06/27 11:24:10;;;;;;;3.17;2.95;;;20.50;99.90;;;;;;5017694;28;20038;-33
2022/06/27 11:26:44;;;;;;;3.00;2.75;;;20.40;99.90;;;;;;5021675;28;20496;-33
2022/06/27 11:32:21;;;;;;;3.30;3.00;;;20.40;99.90;;;;;;4988040;28;20077;-34
2022/06/27 11:34:52;;;;;;;4.28;3.28;;;20.40;99.90;;;;;;5019453;28;20080;-36
2022/06/27 11:37:22;;;;;;;4.78;3.70;;;20.40;99.90;;;;;;5027141;28;20412;-33
2022/06/27 11:40:05;;;;;;;3.70;3.40;;;20.40;99.90;;;;;;5028609;28;20046;-33
2022/06/27 11:42:33;;;;;;;3.83;3.42;;;20.40;99.90;;;;;;5022590;28;20335;-35
2022/06/27 11:45:10;;;;;;;4.10;3.55;;;20.40;99.90;;;;;;5016366;28;20046;-34
2022/06/27 11:47:41;;;;;;;4.45;4.05;;;20.40;99.90;;;;;;5023996;28;20550;-34
2022/06/27 11:50:15;;;;;;;3.88;3.60;;;20.40;99.90;;;;;;5029185;28;20096;-34
2022/06/27 11:52:47;;;;;;;3.63;3.33;;;20.40;99.90;;;;;;5018900;28;20042;-34
2022/06/27 11:55:22;;;;;;;3.10;2.90;;;20.40;99.90;;;;;;5023232;28;20512;-31
2022/06/27 11:57:51;;;;;;;3.05;2.75;;;20.40;99.90;;;;;;5020454;28;20085;-34
2022/06/27 12:00:22;;;;;;;2.88;2.67;;;20.40;99.90;;;;;;5022781;28;20033;-33
2022/06/27 12:03:00;;;;;;;3.13;2.88;;;20.40;99.90;;;;;;5019035;28;20120;-32
2022/06/27 12:05:26;;;;;;;2.70;2.40;;;20.40;99.90;;;;;;5017187;28;20057;-35
2022/06/27 12:07:52;;;;;;;2.55;2.35;;;20.40;99.90;;;;;;5030245;28;20400;-33
2022/06/27 12:10:41;;;;;;;2.58;2.35;;;20.40;99.90;;;;;;5026679;28;20047;-32
2022/06/27 12:13:10;;;;;;;3.28;2.80;;;20.30;99.90;;;;;;5014129;28;20124;-30
2022/06/27 12:15:37;;;;;;;2.92;2.67;;;20.40;99.90;;;;;;5026799;28;20091;-31
2022/06/27 12:18:04;;;;;;;2.80;2.50;;;20.50;99.90;;;;;;5023777;28;20531;-33
2022/06/27 12:20:32;;;;;;;2.78;2.55;;;20.60;99.90;;;;;;5020138;28;20034;-31
2022/06/27 12:22:58;;;;;;;3.45;2.90;;;20.70;99.90;;;;;;5026271;28;20037;-33
2022/06/27 12:25:25;;;;;;;3.90;3.60;;;20.80;99.90;;;;;;5026719;28;20034;-36
2022/06/27 12:27:50;;;;;;;3.58;3.10;;;20.80;99.90;;;;;;5023831;28;20149;-31
2022/06/27 12:30:17;;;;;;;3.88;3.50;;;20.70;99.90;;;;;;5030938;28;20061;-33
2022/06/27 12:32:44;;;;;;;3.35;3.05;;;20.70;99.90;;;;;;5027530;28;20068;-31
2022/06/27 12:35:10;;;;;;;2.75;2.50;;;20.70;99.90;;;;;;5024539;28;20095;-33
2022/06/27 12:37:37;;;;;;;2.67;2.47;;;20.70;99.90;;;;;;5029302;28;20041;-32
2022/06/27 12:40:05;;;;;;;3.15;2.95;;;20.60;99.90;;;;;;5029441;28;20430;-31
2022/06/27 12:42:31;;;;;;;3.55;3.25;;;20.60;99.90;;;;;;5031482;28;20507;-33
2022/06/27 12:44:57;;;;;;;3.03;2.72;;;20.50;99.90;;;;;;5020892;28;20121;-32
2022/06/27 12:47:23;;;;;;;3.10;2.55;;;20.50;99.90;;;;;;5022583;28;20125;-31
2022/06/27 12:49:50;;;;;;;4.95;3.28;;;20.40;99.90;;;;;;5027570;28;20658;-32
2022/06/27 12:52:16;;;;;;;3.40;3.10;;;20.30;99.90;;;;;;5027951;28;20041;-32
2022/06/27 12:54:43;;;;;;;3.75;3.38;;;20.20;99.90;;;;;;5028487;28;20048;-32
2022/06/27 12:57:13;;;;;;;4.03;3.72;;;20.10;99.90;;;;;;5024636;28;20041;-31